createdAt,value
2019-05-05T00:01:37.438Z,5.10
2019-05-05T00:04:07.768Z,5.10
2019-05-05T00:06:36.497Z,5.10
2019-05-05T00:09:06.361Z,5.20
2019-05-05T00:11:39.433Z,5.20
2019-05-05T00:14:12.828Z,5.10
2019-05-05T00:16:49.212Z,5.20
2019-05-05T00:19:29.954Z,5.20
2019-05-05T00:21:49.761Z,5.30
2019-05-05T00:24:19.060Z,5.30
2019-05-05T00:26:47.772Z,5.30
2019-05-05T00:29:16.579Z,5.40
2019-05-05T00:31:45.478Z,5.30
2019-05-05T00:34:15.291Z,5.30
2019-05-05T00:36:44.647Z,5.40
2019-05-05T00:39:14.927Z,5.30
2019-05-05T00:41:44.928Z,5.30
2019-05-05T00:44:15.303Z,5.30
2019-05-05T00:46:58.034Z,5.30
2019-05-05T00:49:28.346Z,5.30
2019-05-05T00:51:57.207Z,5.30
2019-05-05T00:54:26.047Z,5.30
2019-05-05T00:56:54.774Z,5.30
2019-05-05T00:59:25.257Z,5.30
2019-05-05T01:02:01.135Z,5.30
2019-05-05T01:04:40.172Z,5.30
2019-05-05T01:07:08.898Z,5.30
2019-05-05T01:09:38.163Z,5.30
2019-05-05T01:12:07.410Z,5.30
2019-05-05T01:14:36.143Z,5.30
2019-05-05T01:17:05.321Z,5.20
2019-05-05T01:19:34.957Z,5.20
2019-05-05T01:22:04.965Z,5.20
2019-05-05T01:24:34.286Z,5.10
2019-05-05T01:27:04.236Z,5.10
2019-05-05T01:29:34.773Z,5.10
2019-05-05T01:32:05.307Z,5.00
2019-05-05T01:34:35.673Z,5.00
2019-05-05T01:37:06.025Z,5.00
2019-05-05T01:39:36.517Z,5.00
2019-05-05T01:42:14.301Z,5.00
2019-05-05T01:44:44.753Z,4.90
2019-05-05T01:47:14.841Z,4.90
2019-05-05T01:49:45.392Z,4.90
2019-05-05T01:52:14.922Z,4.80
2019-05-05T01:54:44.612Z,4.80
2019-05-05T01:57:14.784Z,4.90
2019-05-05T01:59:44.844Z,4.90
2019-05-05T02:02:14.665Z,4.90
2019-05-05T02:04:44.780Z,5.00
2019-05-05T02:07:14.518Z,5.00
2019-05-05T02:09:45.085Z,5.00
2019-05-05T02:12:15.864Z,5.00
2019-05-05T02:14:44.811Z,5.00
2019-05-05T02:17:14.423Z,5.00
2019-05-05T02:19:44.368Z,5.00
2019-05-05T02:22:14.697Z,5.00
2019-05-05T02:24:44.396Z,5.00
2019-05-05T02:27:14.578Z,5.00
2019-05-05T02:29:45.378Z,5.00
2019-05-05T02:32:31.805Z,5.00
2019-05-05T02:35:02.212Z,5.00
2019-05-05T02:37:30.933Z,4.90
2019-05-05T02:40:06.297Z,4.90
2019-05-05T02:42:31.233Z,4.90
2019-05-05T02:45:05.570Z,4.90
2019-05-05T02:47:54.714Z,4.80
2019-05-05T02:50:25.107Z,4.70
2019-05-05T02:52:53.599Z,4.70
2019-05-05T02:55:23.570Z,4.70
2019-05-05T02:57:54.408Z,4.70
2019-05-05T03:00:27.187Z,4.70
2019-05-05T03:02:58.276Z,4.70
2019-05-05T03:05:27.756Z,4.80
2019-05-05T03:07:58.093Z,4.80
2019-05-05T03:10:28.805Z,4.80
2019-05-05T03:13:00.822Z,4.80
2019-05-05T03:15:49.100Z,4.90
2019-05-05T03:18:17.853Z,4.90
2019-05-05T03:20:46.707Z,5.00
2019-05-05T03:23:15.424Z,4.90
2019-05-05T03:25:44.342Z,4.90
2019-05-05T03:28:13.696Z,4.90
2019-05-05T03:30:45.392Z,5.00
2019-05-05T03:33:16.234Z,5.00
2019-05-05T03:35:45.881Z,5.10
2019-05-05T03:38:15.632Z,5.10
2019-05-05T03:40:46.558Z,5.10
2019-05-05T03:43:17.008Z,5.20
2019-05-05T03:45:47.481Z,5.20
2019-05-05T03:48:17.836Z,5.20
2019-05-05T03:50:46.693Z,5.30
2019-05-05T03:53:16.905Z,5.40
2019-05-05T03:55:45.736Z,5.30
2019-05-05T03:58:15.787Z,5.40
2019-05-05T04:00:56.364Z,5.50
2019-05-05T04:03:25.051Z,5.50
2019-05-05T04:05:58.426Z,5.60
2019-05-05T04:08:27.831Z,5.60
2019-05-05T04:10:56.563Z,5.50
2019-05-05T04:13:25.461Z,5.40
2019-05-05T04:16:08.179Z,5.40
2019-05-05T04:18:44.222Z,5.50
2019-05-05T04:21:14.479Z,5.50
2019-05-05T04:23:44.228Z,5.50
2019-05-05T04:26:14.290Z,5.40
2019-05-05T04:28:43.709Z,5.40
2019-05-05T04:31:13.538Z,5.40
2019-05-05T04:33:44.362Z,5.40
2019-05-05T04:36:14.455Z,5.40
2019-05-05T04:38:43.915Z,5.40
2019-05-05T04:41:14.023Z,5.30
2019-05-05T04:43:44.168Z,5.30
2019-05-05T04:46:14.085Z,5.30
2019-05-05T04:48:54.439Z,5.20
2019-05-05T04:51:24.817Z,5.30
2019-05-05T04:54:06.960Z,5.30
2019-05-05T04:56:36.060Z,5.30
2019-05-05T04:59:04.850Z,5.20
2019-05-05T05:01:34.148Z,5.20
2019-05-05T05:04:21.008Z,5.20
2019-05-05T05:06:54.645Z,5.20
2019-05-05T05:09:23.834Z,5.20
2019-05-05T05:11:54.552Z,5.20
2019-05-05T05:14:24.728Z,5.20
2019-05-05T05:16:56.801Z,5.20
2019-05-05T05:19:25.534Z,5.30
2019-05-05T05:22:01.583Z,5.20
2019-05-05T05:24:24.629Z,5.20
2019-05-05T05:26:55.297Z,5.30
2019-05-05T05:29:23.922Z,5.20
2019-05-05T05:31:53.538Z,5.30
2019-05-05T05:34:23.865Z,5.30
2019-05-05T05:36:55.139Z,5.30
2019-05-05T05:39:25.483Z,5.40
2019-05-05T05:41:56.348Z,5.40
2019-05-05T05:44:35.846Z,5.40
2019-05-05T05:47:13.881Z,5.40
2019-05-05T05:49:44.035Z,5.40
2019-05-05T05:52:18.761Z,5.60
2019-05-05T05:54:44.254Z,5.50
2019-05-05T05:57:13.645Z,5.60
2019-05-05T05:59:44.365Z,5.70
2019-05-05T06:02:15.541Z,5.80
2019-05-05T06:04:44.576Z,5.90
2019-05-05T06:07:14.239Z,5.90
2019-05-05T06:09:43.866Z,5.90
2019-05-05T06:12:14.187Z,5.80
2019-05-05T06:14:44.712Z,5.70
2019-05-05T06:17:13.726Z,5.80
2019-05-05T06:19:44.452Z,5.70
2019-05-05T06:22:15.168Z,5.70
2019-05-05T06:24:43.912Z,5.60
2019-05-05T06:27:14.253Z,5.60
2019-05-05T06:29:43.855Z,5.60
2019-05-05T06:32:14.553Z,5.60
2019-05-05T06:34:44.304Z,5.60
2019-05-05T06:37:14.491Z,5.70
2019-05-05T06:39:43.966Z,5.80
2019-05-05T06:42:17.257Z,5.90
2019-05-05T06:44:47.621Z,5.90
2019-05-05T06:47:18.044Z,6.00
2019-05-05T06:49:46.767Z,6.00
2019-05-05T06:52:15.489Z,5.90
2019-05-05T06:54:44.267Z,5.70
2019-05-05T06:57:13.679Z,5.80
2019-05-05T06:59:43.902Z,5.90
2019-05-05T07:02:14.549Z,6.00
2019-05-05T07:04:44.489Z,6.00
2019-05-05T07:07:14.543Z,6.00
2019-05-05T07:09:44.703Z,5.90
2019-05-05T07:12:13.951Z,6.00
2019-05-05T07:14:44.520Z,6.10
2019-05-05T07:17:14.083Z,6.20
2019-05-05T07:19:44.986Z,6.20
2019-05-05T07:22:14.431Z,6.20
2019-05-05T07:24:43.952Z,6.10
2019-05-05T07:27:13.845Z,6.40
2019-05-05T07:29:43.685Z,6.40
2019-05-05T07:32:14.222Z,6.30
2019-05-05T07:34:47.826Z,6.20
2019-05-05T07:37:16.685Z,6.00
2019-05-05T07:39:45.400Z,6.10
2019-05-05T07:42:14.188Z,6.10
2019-05-05T07:44:44.117Z,6.20
2019-05-05T07:47:14.581Z,6.20
2019-05-05T07:49:44.141Z,6.10
2019-05-05T07:52:14.898Z,6.10
2019-05-05T07:54:43.673Z,6.30
2019-05-05T07:57:14.504Z,6.40
2019-05-05T07:59:45.002Z,6.40
2019-05-05T08:02:14.559Z,6.50
2019-05-05T08:04:43.814Z,6.50
2019-05-05T08:07:14.594Z,6.60
2019-05-05T08:09:44.461Z,6.60
2019-05-05T08:12:13.831Z,6.50
2019-05-05T08:14:44.463Z,6.50
2019-05-05T08:17:30.945Z,6.50
2019-05-05T08:20:04.084Z,6.30
2019-05-05T08:22:33.978Z,6.30
2019-05-05T08:25:07.249Z,6.40
2019-05-05T08:27:54.365Z,6.40
2019-05-05T08:30:24.832Z,6.40
2019-05-05T08:32:55.349Z,6.60
2019-05-05T08:35:24.093Z,6.70
2019-05-05T08:37:54.236Z,6.60
2019-05-05T08:40:23.969Z,6.60
2019-05-05T08:42:53.977Z,6.50
2019-05-05T08:45:26.190Z,6.60
2019-05-05T08:47:54.157Z,6.50
2019-05-05T08:50:26.445Z,6.50
2019-05-05T08:52:53.792Z,6.70
2019-05-05T08:55:24.476Z,6.80
2019-05-05T08:57:53.956Z,7.00
2019-05-05T09:00:24.468Z,7.10
2019-05-05T09:02:54.292Z,7.00
2019-05-05T09:05:23.899Z,7.00
2019-05-05T09:07:54.589Z,7.00
2019-05-05T09:10:23.662Z,6.70
2019-05-05T09:12:54.269Z,6.80
2019-05-05T09:15:24.273Z,6.70
2019-05-05T09:17:54.525Z,6.70
2019-05-05T09:20:24.275Z,6.70
2019-05-05T09:22:53.613Z,6.70
2019-05-05T09:25:24.179Z,6.70
2019-05-05T09:27:56.990Z,6.70
2019-05-05T09:30:31.504Z,6.60
2019-05-05T09:33:00.298Z,6.60
2019-05-05T09:35:29.010Z,6.60
2019-05-05T09:37:58.153Z,6.70
2019-05-05T09:40:40.905Z,6.80
2019-05-05T09:43:10.320Z,6.90
2019-05-05T09:45:39.732Z,7.10
2019-05-05T09:48:08.649Z,7.20
2019-05-05T09:50:37.432Z,7.10
2019-05-05T09:53:06.355Z,7.10
2019-05-05T09:55:35.164Z,7.30
2019-05-05T09:58:04.478Z,7.40
2019-05-05T10:00:34.950Z,7.40
2019-05-05T10:03:03.877Z,7.60
2019-05-05T10:05:34.240Z,7.70
2019-05-05T10:08:03.622Z,7.90
2019-05-05T10:10:33.694Z,7.90
2019-05-05T10:13:04.144Z,8.10
2019-05-05T10:15:33.162Z,8.20
2019-05-05T10:18:03.511Z,8.30
2019-05-05T10:20:34.235Z,8.40
2019-05-05T10:23:05.020Z,8.60
2019-05-05T10:25:37.880Z,8.50
2019-05-05T10:28:06.733Z,8.90
2019-05-05T10:30:36.014Z,8.80
2019-05-05T10:33:04.772Z,8.60
2019-05-05T10:35:34.476Z,9.00
2019-05-05T10:38:03.452Z,9.10
2019-05-05T10:40:34.011Z,9.50
2019-05-05T10:43:04.366Z,9.80
2019-05-05T10:45:33.379Z,10.00
2019-05-05T10:48:04.215Z,9.40
2019-05-05T10:50:34.293Z,9.50
2019-05-05T10:53:05.099Z,9.50
2019-05-05T10:55:34.698Z,9.70
2019-05-05T10:58:03.998Z,9.50
2019-05-05T11:00:41.344Z,9.90
2019-05-05T11:03:10.160Z,10.20
2019-05-05T11:05:38.984Z,10.10
2019-05-05T11:08:07.701Z,10.40
2019-05-05T11:10:36.459Z,10.10
2019-05-05T11:13:05.663Z,10.10
2019-05-05T11:15:34.373Z,9.60
2019-05-05T11:18:03.992Z,9.70
2019-05-05T11:20:34.095Z,9.60
2019-05-05T11:23:04.835Z,9.70
2019-05-05T11:25:33.835Z,9.60
2019-05-05T11:28:04.397Z,9.80
2019-05-05T11:30:36.079Z,9.80
2019-05-05T11:33:11.669Z,9.70
2019-05-05T11:35:49.226Z,9.60
2019-05-05T11:38:19.409Z,9.60
2019-05-05T11:40:48.125Z,9.20
2019-05-05T11:43:17.188Z,9.10
2019-05-05T11:45:46.073Z,9.10
2019-05-05T11:48:14.950Z,9.40
2019-05-05T11:50:43.855Z,9.40
2019-05-05T11:53:14.446Z,9.70
2019-05-05T11:55:44.271Z,9.60
2019-05-05T11:58:14.335Z,9.50
2019-05-05T12:00:43.840Z,9.90
2019-05-05T12:03:14.386Z,9.80
2019-05-05T12:05:44.285Z,9.90
2019-05-05T12:08:14.628Z,9.90
2019-05-05T12:10:51.489Z,10.00
2019-05-05T12:13:20.214Z,9.90
2019-05-05T12:15:50.585Z,9.90
2019-05-05T12:18:19.365Z,9.90
2019-05-05T12:20:48.144Z,9.60
2019-05-05T12:23:16.960Z,9.50
2019-05-05T12:25:56.929Z,9.70
2019-05-05T12:28:24.882Z,9.80
2019-05-05T12:31:08.161Z,9.60
2019-05-05T12:33:36.952Z,9.50
2019-05-05T12:36:06.013Z,9.80
2019-05-05T12:38:34.906Z,10.00
2019-05-05T12:41:04.313Z,10.00
2019-05-05T12:43:34.019Z,9.50
2019-05-05T12:46:07.298Z,9.70
2019-05-05T12:48:40.349Z,9.60
2019-05-05T12:51:09.063Z,9.80
2019-05-05T12:53:37.800Z,9.90
2019-05-05T12:56:06.658Z,10.00
2019-05-05T12:58:35.904Z,9.80
2019-05-05T13:01:06.283Z,9.80
2019-05-05T13:03:35.061Z,9.90
2019-05-05T13:06:04.159Z,9.90
2019-05-05T13:08:34.009Z,10.30
2019-05-05T13:11:04.071Z,10.20
2019-05-05T13:13:34.599Z,10.10
2019-05-05T13:16:04.293Z,10.20
2019-05-05T13:18:33.926Z,10.30
2019-05-05T13:21:16.439Z,10.40
2019-05-05T13:24:01.946Z,10.30
2019-05-05T13:26:46.222Z,10.20
2019-05-05T13:29:14.662Z,10.40
2019-05-05T13:31:44.804Z,10.60
2019-05-05T13:34:13.760Z,10.80
2019-05-05T13:36:44.092Z,10.70
2019-05-05T13:39:14.442Z,10.70
2019-05-05T13:41:44.849Z,10.40
2019-05-05T13:44:15.555Z,10.20
2019-05-05T13:46:44.354Z,9.50
2019-05-05T13:49:19.178Z,9.50
2019-05-05T13:51:47.876Z,9.20
2019-05-05T13:54:16.663Z,9.30
2019-05-05T13:56:45.411Z,9.50
2019-05-05T13:59:14.316Z,9.40
2019-05-05T14:01:44.812Z,9.50
2019-05-05T14:04:13.858Z,9.30
2019-05-05T14:06:44.449Z,9.50
2019-05-05T14:09:13.792Z,9.60
2019-05-05T14:11:44.557Z,9.90
2019-05-05T14:14:13.763Z,10.20
2019-05-05T14:16:44.621Z,10.90
2019-05-05T14:19:14.657Z,11.10
2019-05-05T14:21:44.611Z,11.40
2019-05-05T14:24:15.468Z,11.50
2019-05-05T14:26:44.181Z,11.30
2019-05-05T14:29:14.723Z,11.70
2019-05-05T14:31:44.628Z,11.60
2019-05-05T14:34:15.030Z,11.60
2019-05-05T14:36:53.362Z,11.40
2019-05-05T14:39:23.870Z,12.00
2019-05-05T14:41:53.955Z,12.10
2019-05-05T14:44:24.019Z,12.50
2019-05-05T14:46:52.999Z,12.60
2019-05-05T14:49:21.749Z,12.90
2019-05-05T14:51:50.473Z,12.50
2019-05-05T14:54:19.196Z,12.30
2019-05-05T14:56:47.908Z,11.90
2019-05-05T14:59:16.638Z,12.10
2019-05-05T15:01:45.377Z,12.60
2019-05-05T15:04:15.728Z,13.00
2019-05-05T15:06:46.083Z,11.70
2019-05-05T15:09:33.639Z,12.20
2019-05-05T15:12:05.191Z,12.70
2019-05-05T15:14:34.023Z,12.50
2019-05-05T15:17:03.681Z,12.60
2019-05-05T15:19:34.030Z,12.70
2019-05-05T15:22:03.751Z,12.90
2019-05-05T15:24:33.591Z,12.30
2019-05-05T15:27:02.416Z,11.80
2019-05-05T15:29:31.208Z,12.40
2019-05-05T15:31:59.927Z,12.80
2019-05-05T15:34:28.804Z,12.40
2019-05-05T15:36:59.142Z,13.00
2019-05-05T15:39:27.928Z,13.50
2019-05-05T15:41:56.721Z,13.50
2019-05-05T15:44:26.946Z,13.30
2019-05-05T15:46:57.871Z,13.30
2019-05-05T15:49:26.092Z,13.20
2019-05-05T15:51:54.821Z,12.90
2019-05-05T15:54:23.759Z,12.60
2019-05-05T15:57:02.995Z,12.40
2019-05-05T15:59:23.955Z,12.50
2019-05-05T16:01:54.731Z,11.80
2019-05-05T16:04:23.713Z,11.00
2019-05-05T16:06:54.066Z,10.70
2019-05-05T16:09:23.072Z,11.00
2019-05-05T16:11:51.781Z,10.90
2019-05-05T16:14:21.171Z,10.80
2019-05-05T16:16:51.533Z,10.70
2019-05-05T16:19:28.167Z,10.50
2019-05-05T16:21:58.584Z,10.30
2019-05-05T16:24:29.025Z,10.30
2019-05-05T16:26:57.811Z,10.00
2019-05-05T16:29:26.499Z,9.90
2019-05-05T16:31:56.846Z,9.50
2019-05-05T16:34:25.556Z,9.50
2019-05-05T16:36:56.940Z,9.70
2019-05-05T16:39:25.637Z,9.80
2019-05-05T16:41:56.477Z,9.70
2019-05-05T16:44:25.172Z,9.60
2019-05-05T16:46:54.037Z,9.40
2019-05-05T16:49:22.981Z,9.40
2019-05-05T16:51:54.526Z,9.10
2019-05-05T16:54:24.994Z,9.10
2019-05-05T16:56:53.723Z,8.80
2019-05-05T16:59:23.732Z,9.00
2019-05-05T17:01:54.095Z,9.20
2019-05-05T17:04:24.346Z,9.10
2019-05-05T17:06:54.677Z,9.00
2019-05-05T17:09:25.104Z,8.90
2019-05-05T17:12:09.280Z,8.70
2019-05-05T17:14:40.346Z,8.60
2019-05-05T17:17:10.696Z,8.50
2019-05-05T17:19:41.056Z,8.30
2019-05-05T17:22:11.484Z,8.20
2019-05-05T17:24:40.184Z,8.00
2019-05-05T17:27:08.934Z,7.90
2019-05-05T17:29:37.704Z,7.80
2019-05-05T17:32:06.411Z,7.70
2019-05-05T17:34:35.290Z,7.60
2019-05-05T17:37:04.364Z,7.60
2019-05-05T17:39:34.755Z,7.50
2019-05-05T17:42:11.019Z,7.40
2019-05-05T17:44:46.798Z,7.40
2019-05-05T17:47:24.439Z,7.30
2019-05-05T17:49:54.873Z,7.30
2019-05-05T17:52:28.395Z,7.20
2019-05-05T17:54:58.078Z,7.20
2019-05-05T17:57:26.721Z,7.10
2019-05-05T17:59:55.536Z,7.00
2019-05-05T18:02:24.406Z,6.90
2019-05-05T18:04:54.070Z,6.80
2019-05-05T18:07:24.745Z,6.80
2019-05-05T18:09:55.124Z,6.70
2019-05-05T18:12:25.585Z,6.60
2019-05-05T18:15:05.237Z,6.40
2019-05-05T18:17:34.098Z,6.30
2019-05-05T18:20:04.452Z,6.10
2019-05-05T18:22:34.280Z,6.00
2019-05-05T18:25:03.875Z,5.90
2019-05-05T18:27:34.361Z,5.80
2019-05-05T18:30:03.969Z,5.70
2019-05-05T18:32:34.216Z,5.70
2019-05-05T18:35:06.518Z,5.60
2019-05-05T18:37:34.739Z,5.50
2019-05-05T18:40:04.525Z,5.50
2019-05-05T18:42:34.005Z,5.50
2019-05-05T18:45:07.191Z,5.40
2019-05-05T18:47:35.945Z,5.30
2019-05-05T18:50:06.941Z,5.20
2019-05-05T18:52:35.650Z,5.10
2019-05-05T18:55:08.357Z,4.90
2019-05-05T18:57:37.056Z,4.90
2019-05-05T19:00:10.368Z,4.80
2019-05-05T19:02:46.896Z,4.70
2019-05-05T19:05:24.587Z,4.70
2019-05-05T19:07:56.155Z,4.70
2019-05-05T19:10:25.080Z,4.70
2019-05-05T19:12:54.223Z,4.60
2019-05-05T19:15:24.439Z,4.60
2019-05-05T19:17:53.380Z,4.70
2019-05-05T19:20:24.456Z,4.50
2019-05-05T19:23:03.504Z,4.50
2019-05-05T19:25:31.724Z,4.40
2019-05-05T19:28:00.435Z,4.30
2019-05-05T19:30:29.249Z,4.30
2019-05-05T19:32:58.048Z,4.20
2019-05-05T19:35:40.713Z,4.20
2019-05-05T19:37:57.170Z,4.20
2019-05-05T19:40:25.872Z,4.10
2019-05-05T19:42:54.590Z,4.00
2019-05-05T19:45:24.127Z,3.90
2019-05-05T19:47:53.721Z,3.90
2019-05-05T19:50:24.522Z,3.80
2019-05-05T19:52:53.868Z,3.70
2019-05-05T19:55:22.819Z,3.70
2019-05-05T19:57:53.906Z,3.60
2019-05-05T20:00:23.473Z,3.50
2019-05-05T20:03:03.708Z,3.60
2019-05-05T20:05:24.590Z,3.60
2019-05-05T20:07:55.307Z,3.60
2019-05-05T20:10:23.913Z,3.50
2019-05-05T20:12:54.008Z,3.40
2019-05-05T20:15:27.364Z,3.40
2019-05-05T20:17:56.080Z,3.30
2019-05-05T20:20:24.808Z,3.30
2019-05-05T20:22:54.768Z,3.20
2019-05-05T20:25:24.379Z,3.10
2019-05-05T20:27:55.729Z,3.10
2019-05-05T20:30:24.671Z,3.10
2019-05-05T20:32:58.147Z,3.00
2019-05-05T20:35:28.543Z,3.10
2019-05-05T20:38:02.022Z,3.00
2019-05-05T20:40:35.160Z,3.00
2019-05-05T20:43:04.144Z,2.90
2019-05-05T20:45:34.641Z,2.90
2019-05-05T20:48:04.510Z,2.80
2019-05-05T20:50:34.341Z,2.80
2019-05-05T20:53:04.903Z,2.70
2019-05-05T20:55:34.038Z,2.60
2019-05-05T20:58:04.723Z,2.50
2019-05-05T21:00:34.803Z,2.50
2019-05-05T21:03:04.818Z,2.40
2019-05-05T21:05:34.479Z,2.40
2019-05-05T21:08:04.867Z,2.40
2019-05-05T21:10:34.787Z,2.40
2019-05-05T21:13:03.873Z,2.40
2019-05-05T21:15:34.058Z,2.40
2019-05-05T21:18:04.913Z,2.40
2019-05-05T21:20:34.684Z,2.30
2019-05-05T21:23:05.227Z,2.30
2019-05-05T21:25:38.795Z,2.30
2019-05-05T21:28:07.557Z,2.40
2019-05-05T21:30:36.399Z,2.40
2019-05-05T21:33:05.137Z,2.40
2019-05-05T21:35:34.841Z,2.40
2019-05-05T21:38:04.765Z,2.40
2019-05-05T21:40:34.618Z,2.40
2019-05-05T21:43:04.916Z,2.40
2019-05-05T21:45:34.727Z,2.30
2019-05-05T21:48:04.431Z,2.40
2019-05-05T21:50:35.153Z,2.40
2019-05-05T21:53:17.501Z,2.40
2019-05-05T21:55:50.312Z,2.40
2019-05-05T21:58:25.334Z,2.40
2019-05-05T22:00:55.934Z,2.30
2019-05-05T22:03:29.090Z,2.20
2019-05-05T22:05:57.811Z,2.20
2019-05-05T22:08:26.633Z,2.10
2019-05-05T22:10:55.359Z,2.10
2019-05-05T22:13:24.239Z,1.90
2019-05-05T22:15:54.602Z,1.90
2019-05-05T22:18:23.549Z,1.80
2019-05-05T22:21:06.045Z,1.70
2019-05-05T22:23:36.820Z,1.70
2019-05-05T22:26:05.240Z,1.60
2019-05-05T22:28:34.183Z,1.50
2019-05-05T22:31:04.661Z,1.50
2019-05-05T22:33:34.166Z,1.50
2019-05-05T22:36:04.466Z,1.40
2019-05-05T22:38:33.961Z,1.40
2019-05-05T22:41:02.972Z,1.40
2019-05-05T22:43:31.693Z,1.30
2019-05-05T22:46:00.413Z,1.30
2019-05-05T22:48:29.135Z,1.30
2019-05-05T22:50:58.933Z,1.30
2019-05-05T22:53:27.631Z,1.20
2019-05-05T22:55:57.468Z,1.20
2019-05-05T22:58:26.216Z,1.20
2019-05-05T23:00:55.140Z,1.10
2019-05-05T23:03:31.204Z,1.10
2019-05-05T23:06:01.709Z,1.10
2019-05-05T23:08:31.644Z,1.10
2019-05-05T23:11:00.376Z,1.10
2019-05-05T23:13:29.089Z,1.10
2019-05-05T23:15:59.426Z,1.10
2019-05-05T23:18:30.129Z,1.00
2019-05-05T23:21:06.439Z,1.00
2019-05-05T23:23:36.811Z,1.10
2019-05-05T23:26:23.147Z,1.10
2019-05-05T23:28:53.578Z,1.10
2019-05-05T23:31:24.141Z,1.10
2019-05-05T23:33:54.697Z,1.10
2019-05-05T23:36:24.200Z,1.00
2019-05-05T23:38:54.902Z,1.00
2019-05-05T23:41:25.697Z,0.90
2019-05-05T23:43:54.610Z,0.90
2019-05-05T23:46:24.121Z,1.00
2019-05-05T23:48:53.662Z,1.00
2019-05-05T23:51:24.254Z,1.00
2019-05-05T23:53:55.093Z,0.90
2019-05-05T23:56:24.076Z,0.90
2019-05-05T23:58:54.910Z,1.00
